In Rescue
 
Open Full Screen Window  High Contrast Mode
Wind Gusting 00 knots
03
November 19, 2019 2:15 PM EST
Weather Information
Wind Direction
  080 °
Wind Speed
  03 kt (3 mph)
Wind Gust
  00 kt (0 mph)
Altimeter
29.82 in
Visibility
10 SM
Temperature
06° C
43° F
Dewpoint
00° C
32° F
Humidity
66%
Sky Condition
Broken @ 11,000 ft
Scattered @ 2,400 ft
VFR

METAR KLWA 191915Z AUTO 08003KT 10SM SCT024 BKN110 06/00 A2982 RMK AO2 T00620003

FAA Disclaimer: The data displayed is for advisory purposes only and is not to be used for flight planning or operations.